Time,TemperatureF,DewpointF,PressureIn,WindDirection,WindDirectionDegrees,WindSpeedMPH,WindSpeedGustMPH,Humidity,HourlyPrecipIn,Conditions,Clouds,dailyrainin,SoftwareType,DateUTC
2013-08-01 00:01:00,63.7,61.6,29.87,West,259,0.0,0.0,93,0.00,,,0.00,WeatherCatV1.11B39,2013-08-01 04:01:00,
2013-08-01 00:06:00,63.7,61.9,29.87,West,259,0.0,0.0,94,0.00,,,0.00,WeatherCatV1.11B39,2013-08-01 04:06:00,
2013-08-01 00:11:00,63.5,61.1,29.86,West,259,0.0,0.0,92,0.00,,,0.00,WeatherCatV1.11B39,2013-08-01 04:11:00,
2013-08-01 00:16:00,63.3,60.9,29.87,West,259,0.0,0.0,92,0.00,,,0.00,WeatherCatV1.11B39,2013-08-01 04:16:00,
2013-08-01 00:21:00,63.2,60.8,29.86,West,259,0.0,0.0,92,0.00,,,0.00,WeatherCatV1.11B39,2013-08-01 04:21:00,
2013-08-01 00:26:00,63.2,60.8,29.86,West,259,0.0,0.0,92,0.00,,,0.00,WeatherCatV1.11B39,2013-08-01 04:26:00,
2013-08-01 00:31:00,63.2,61.1,29.86,West,259,0.0,0.0,93,0.00,,,0.00,WeatherCatV1.11B39,2013-08-01 04:31:00,
2013-08-01 00:36:00,63.0,60.6,29.86,West,259,0.0,0.0,92,0.00,,,0.00,WeatherCatV1.11B39,2013-08-01 04:36:00,
2013-08-01 00:41:00,62.9,60.5,29.87,West,259,0.0,0.0,92,0.00,,,0.00,WeatherCatV1.11B39,2013-08-01 04:41:00,
2013-08-01 00:46:00,62.7,60.3,29.87,West,259,0.0,0.0,92,0.00,,,0.00,WeatherCatV1.11B39,2013-08-01 04:46:00,
2013-08-01 00:51:00,62.7,60.6,29.86,West,259,0.0,0.0,93,0.00,,,0.00,WeatherCatV1.11B39,2013-08-01 04:51:00,
2013-08-01 00:56:00,62.7,60.6,29.87,West,259,0.0,0.0,93,0.00,,,0.00,WeatherCatV1.11B39,2013-08-01 04:56:00,
2013-08-01 01:01:00,62.7,60.6,29.86,West,259,0.0,0.0,93,0.00,,,0.00,WeatherCatV1.11B39,2013-08-01 05:01:00,
2013-08-01 01:06:00,62.6,60.5,29.86,West,259,0.0,0.0,93,0.00,,,0.00,WeatherCatV1.11B39,2013-08-01 05:06:00,
2013-08-01 01:11:00,62.7,60.6,29.86,West,259,0.0,0.0,93,0.00,,,0.00,WeatherCatV1.11B39,2013-08-01 05:11:00,
2013-08-01 01:16:00,62.7,60.6,29.86,West,259,0.0,0.0,93,0.00,,,0.00,WeatherCatV1.11B39,2013-08-01 05:16:00,
2013-08-01 01:21:00,62.4,60.6,29.85,West,259,0.0,0.0,94,0.00,,,0.00,WeatherCatV1.11B39,2013-08-01 05:21:00,
2013-08-01 01:26:00,62.3,60.2,29.86,West,259,0.0,0.0,93,0.00,,,0.00,WeatherCatV1.11B39,2013-08-01 05:26:00,
2013-08-01 01:31:00,62.1,60.3,29.85,West,259,0.0,0.0,94,0.00,,,0.00,WeatherCatV1.11B39,2013-08-01 05:31:00,
2013-08-01 01:36:00,62.0,59.9,29.85,West,259,0.0,0.0,93,0.00,,,0.00,WeatherCatV1.11B39,2013-08-01 05:36:00,
2013-08-01 01:41:00,61.8,60.1,29.85,WSW,258,0.0,0.0,94,0.00,,,0.00,WeatherCatV1.11B39,2013-08-01 05:41:00,
2013-08-01 01:46:00,61.8,60.1,29.85,West,259,0.0,0.0,94,0.00,,,0.00,WeatherCatV1.11B39,2013-08-01 05:46:00,
2013-08-01 01:51:00,61.8,60.1,29.85,West,259,0.0,0.0,94,0.00,,,0.00,WeatherCatV1.11B39,2013-08-01 05:51:00,
2013-08-01 01:56:00,61.6,59.9,29.84,West,259,0.0,0.0,94,0.00,,,0.00,WeatherCatV1.11B39,2013-08-01 05:56:00,
2013-08-01 02:01:00,61.5,59.8,29.84,West,259,0.0,0.0,94,0.00,,,0.00,WeatherCatV1.11B39,2013-08-01 06:01:00,
2013-08-01 02:06:00,61.2,59.2,29.84,West,259,0.0,0.0,93,0.00,,,0.00,WeatherCatV1.11B39,2013-08-01 06:06:00,
2013-08-01 02:11:00,61.2,59.5,29.84,West,259,0.0,0.0,94,0.00,,,0.00,WeatherCatV1.11B39,2013-08-01 06:11:00,
2013-08-01 02:16:00,61.3,59.9,29.84,West,259,0.0,0.0,95,0.00,,,0.00,WeatherCatV1.11B39,2013-08-01 06:16:00,
2013-08-01 02:21:00,61.2,59.5,29.84,West,259,0.0,0.0,94,0.00,,,0.00,WeatherCatV1.11B39,2013-08-01 06:21:00,
2013-08-01 02:26:00,61.0,59.3,29.84,WSW,258,0.0,0.0,94,0.00,,,0.00,WeatherCatV1.11B39,2013-08-01 06:26:00,
2013-08-01 02:31:00,61.0,59.3,29.84,West,259,0.0,0.0,94,0.00,,,0.00,WeatherCatV1.11B39,2013-08-01 06:31:00,
2013-08-01 02:36:00,61.0,59.6,29.84,West,259,0.0,0.0,95,0.00,,,0.00,WeatherCatV1.11B39,2013-08-01 06:36:00,
2013-08-01 02:41:00,60.9,59.2,29.84,West,259,0.0,0.0,94,0.00,,,0.00,WeatherCatV1.11B39,2013-08-01 06:41:00,
2013-08-01 02:46:00,60.7,59.0,29.84,WSW,258,0.0,0.0,94,0.00,,,0.00,WeatherCatV1.11B39,2013-08-01 06:46:00,
2013-08-01 02:51:00,60.6,58.9,29.83,West,259,0.0,0.0,94,0.00,,,0.00,WeatherCatV1.11B39,2013-08-01 06:51:00,
2013-08-01 02:56:00,60.6,59.2,29.83,West,259,0.0,0.0,95,0.00,,,0.00,WeatherCatV1.11B39,2013-08-01 06:56:00,
2013-08-01 03:01:00,60.6,59.2,29.83,West,259,0.0,0.0,95,0.00,,,0.00,WeatherCatV1.11B39,2013-08-01 07:01:00,
2013-08-01 03:06:00,60.6,59.2,29.83,West,259,0.0,0.0,95,0.00,,,0.00,WeatherCatV1.11B39,2013-08-01 07:06:00,
2013-08-01 03:11:00,60.7,59.3,29.83,WSW,258,0.0,0.0,95,0.00,,,0.00,WeatherCatV1.11B39,2013-08-01 07:11:00,
2013-08-01 03:16:00,60.7,59.3,29.83,WSW,258,0.0,0.0,95,0.00,,,0.00,WeatherCatV1.11B39,2013-08-01 07:16:00,
2013-08-01 03:21:00,60.6,58.9,29.82,WSW,258,0.0,0.0,94,0.00,,,0.00,WeatherCatV1.11B39,2013-08-01 07:21:00,
2013-08-01 03:26:00,60.4,59.0,29.83,West,259,0.0,0.0,95,0.00,,,0.00,WeatherCatV1.11B39,2013-08-01 07:26:00,
2013-08-01 03:31:00,60.2,58.8,29.82,WSW,258,0.0,0.0,95,0.00,,,0.00,WeatherCatV1.11B39,2013-08-01 07:31:00,
2013-08-01 03:36:00,60.2,58.8,29.83,WSW,258,0.0,0.0,95,0.00,,,0.00,WeatherCatV1.11B39,2013-08-01 07:36:00,
2013-08-01 03:41:00,60.2,58.8,29.82,West,259,0.0,0.0,95,0.00,,,0.00,WeatherCatV1.11B39,2013-08-01 07:41:00,
2013-08-01 03:46:00,60.2,58.8,29.82,West,259,0.0,0.0,95,0.00,,,0.00,WeatherCatV1.11B39,2013-08-01 07:46:00,
2013-08-01 03:51:00,60.2,58.8,29.82,West,259,0.0,0.0,95,0.00,,,0.00,WeatherCatV1.11B39,2013-08-01 07:51:00,
2013-08-01 03:56:00,60.2,58.8,29.82,WSW,258,0.0,0.0,95,0.00,,,0.00,WeatherCatV1.11B39,2013-08-01 07:56:00,
2013-08-01 04:01:00,60.2,58.8,29.82,WSW,258,0.0,0.0,95,0.00,,,0.00,WeatherCatV1.11B39,2013-08-01 08:01:00,
2013-08-01 04:06:00,60.2,58.8,29.82,West,259,0.0,0.0,95,0.00,,,0.00,WeatherCatV1.11B39,2013-08-01 08:06:00,
2013-08-01 04:11:00,60.2,58.8,29.82,West,259,0.0,0.0,95,0.00,,,0.00,WeatherCatV1.11B39,2013-08-01 08:11:00,
2013-08-01 04:16:00,59.9,58.5,29.82,West,259,0.0,0.0,95,0.00,,,0.00,WeatherCatV1.11B39,2013-08-01 08:16:00,
2013-08-01 04:21:00,59.8,58.4,29.82,WSW,258,0.0,0.0,95,0.00,,,0.00,WeatherCatV1.11B39,2013-08-01 08:21:00,
2013-08-01 04:26:00,59.8,58.7,29.82,WSW,258,0.0,0.0,96,0.00,,,0.00,WeatherCatV1.11B39,2013-08-01 08:26:00,
2013-08-01 04:31:00,59.8,58.7,29.82,WSW,258,0.0,0.0,96,0.00,,,0.00,WeatherCatV1.11B39,2013-08-01 08:31:00,
2013-08-01 04:36:00,59.8,58.7,29.82,WSW,258,0.0,0.0,96,0.00,,,0.00,WeatherCatV1.11B39,2013-08-01 08:36:00,
2013-08-01 04:41:00,59.8,58.9,29.82,WSW,258,0.0,0.0,97,0.00,,,0.00,WeatherCatV1.11B39,2013-08-01 08:41:00,
2013-08-01 04:46:00,59.5,58.4,29.81,West,259,0.0,0.0,96,0.00,,,0.00,WeatherCatV1.11B39,2013-08-01 08:46:00,
2013-08-01 04:49:00,59.5,58.4,29.82,West,259,0.0,0.0,96,0.00,,,0.00,WeatherCatV1.11B39,2013-08-01 08:49:00,
2013-08-01 04:54:00,59.6,58.7,29.82,West,259,0.0,0.0,97,0.00,,,0.00,WeatherCatV1.11B39,2013-08-01 08:54:00,
2013-08-01 04:59:00,59.6,58.7,29.82,West,259,0.0,0.0,97,0.00,,,0.00,WeatherCatV1.11B39,2013-08-01 08:59:00,
2013-08-01 05:02:00,59.8,58.9,29.82,WSW,258,0.0,0.0,97,0.00,,,0.00,WeatherCatV1.11B39,2013-08-01 09:02:00,
2013-08-01 05:07:00,59.8,58.9,29.82,West,259,0.0,0.0,97,0.00,,,0.00,WeatherCatV1.11B39,2013-08-01 09:07:00,
2013-08-01 05:12:00,59.8,58.9,29.82,WSW,258,0.0,0.0,97,0.00,,,0.00,WeatherCatV1.11B39,2013-08-01 09:12:00,
2013-08-01 05:17:00,59.5,58.6,29.82,WSW,258,0.0,0.0,97,0.00,,,0.00,WeatherCatV1.11B39,2013-08-01 09:17:00,
2013-08-01 05:22:00,59.5,58.4,29.82,West,259,0.0,0.0,96,0.00,,,0.00,WeatherCatV1.11B39,2013-08-01 09:22:00,
2013-08-01 05:27:00,59.5,58.6,29.82,WSW,258,0.0,0.0,97,0.00,,,0.00,WeatherCatV1.11B39,2013-08-01 09:27:00,
2013-08-01 05:32:00,59.6,58.7,29.81,WSW,258,0.0,0.0,97,0.00,,,0.00,WeatherCatV1.11B39,2013-08-01 09:32:00,
2013-08-01 05:37:00,59.6,58.7,29.82,WSW,258,0.0,0.0,97,0.00,,,0.00,WeatherCatV1.11B39,2013-08-01 09:37:00,
2013-08-01 05:42:00,59.8,58.9,29.81,WSW,258,0.0,0.0,97,0.00,,,0.00,WeatherCatV1.11B39,2013-08-01 09:42:00,
2013-08-01 05:47:00,59.8,58.9,29.81,WSW,258,0.0,0.0,97,0.00,,,0.00,WeatherCatV1.11B39,2013-08-01 09:47:00,
2013-08-01 05:52:00,59.7,58.8,29.81,WSW,258,0.0,0.0,97,0.00,,,0.00,WeatherCatV1.11B39,2013-08-01 09:52:00,
2013-08-01 05:57:00,59.8,58.9,29.81,WSW,258,0.0,0.0,97,0.00,,,0.00,WeatherCatV1.11B39,2013-08-01 09:57:00,
2013-08-01 06:02:00,59.8,58.9,29.82,WSW,258,0.0,0.0,97,0.00,,,0.00,WeatherCatV1.11B39,2013-08-01 10:02:00,
2013-08-01 06:07:00,59.8,59.2,29.82,West,259,0.0,0.0,98,0.00,,,0.00,WeatherCatV1.11B39,2013-08-01 10:07:00,
2013-08-01 06:12:00,59.7,59.1,29.81,West,265,0.0,0.0,98,0.00,,,0.00,WeatherCatV1.11B39,2013-08-01 10:12:00,
2013-08-01 06:17:00,59.9,59.0,29.82,West,265,0.0,0.0,97,0.00,,,0.00,WeatherCatV1.11B39,2013-08-01 10:17:00,
2013-08-01 06:22:00,59.7,58.8,29.82,West,264,0.0,0.0,97,0.00,,,0.00,WeatherCatV1.11B39,2013-08-01 10:22:00,
2013-08-01 06:27:00,59.8,59.2,29.82,West,264,0.0,0.0,98,0.00,,,0.00,WeatherCatV1.11B39,2013-08-01 10:27:00,
2013-08-01 06:32:00,59.9,59.0,29.82,West,264,0.0,0.0,97,0.00,,,0.00,WeatherCatV1.11B39,2013-08-01 10:32:00,
2013-08-01 06:37:00,59.9,59.0,29.81,West,264,0.0,0.0,97,0.00,,,0.00,WeatherCatV1.11B39,2013-08-01 10:37:00,
2013-08-01 06:42:00,59.8,58.9,29.82,West,264,0.0,0.0,97,0.00,,,0.00,WeatherCatV1.11B39,2013-08-01 10:42:00,
2013-08-01 06:47:00,59.8,58.9,29.82,West,264,0.0,0.0,97,0.00,,,0.00,WeatherCatV1.11B39,2013-08-01 10:47:00,
2013-08-01 06:52:00,59.8,58.9,29.82,West,264,0.0,0.0,97,0.00,,,0.00,WeatherCatV1.11B39,2013-08-01 10:52:00,
2013-08-01 06:57:00,59.8,58.9,29.81,West,264,0.0,0.0,97,0.00,,,0.00,WeatherCatV1.11B39,2013-08-01 10:57:00,
2013-08-01 07:02:00,59.9,59.0,29.81,West,264,0.0,0.0,97,0.00,,,0.00,WeatherCatV1.11B39,2013-08-01 11:02:00,
2013-08-01 07:08:00,60.1,59.2,29.82,West,264,0.0,0.0,97,0.00,,,0.00,WeatherCatV1.11B39,2013-08-01 11:08:00,
2013-08-01 07:13:00,60.1,59.2,29.82,West,264,0.0,0.0,97,0.00,,,0.00,WeatherCatV1.11B39,2013-08-01 11:13:00,
2013-08-01 07:18:00,60.3,59.4,29.82,West,264,0.0,0.0,97,0.00,,,0.00,WeatherCatV1.11B39,2013-08-01 11:18:00,
2013-08-01 07:23:00,60.5,59.6,29.82,West,264,0.0,0.0,97,0.00,,,0.00,WeatherCatV1.11B39,2013-08-01 11:23:00,
2013-08-01 07:28:00,60.7,60.1,29.82,West,264,0.0,0.0,98,0.00,,,0.00,WeatherCatV1.11B39,2013-08-01 11:28:00,
2013-08-01 07:33:00,61.0,60.4,29.82,West,264,0.0,0.0,98,0.00,,,0.00,WeatherCatV1.11B39,2013-08-01 11:33:00,
2013-08-01 07:38:00,61.3,60.7,29.81,West,264,0.0,0.0,98,0.00,,,0.00,WeatherCatV1.11B39,2013-08-01 11:38:00,
2013-08-01 07:43:00,61.7,61.1,29.82,West,264,0.0,0.0,98,0.00,,,0.00,WeatherCatV1.11B39,2013-08-01 11:43:00,
2013-08-01 07:48:00,61.9,61.3,29.82,West,264,0.0,0.0,98,0.00,,,0.00,WeatherCatV1.11B39,2013-08-01 11:48:00,
2013-08-01 07:53:00,62.3,61.7,29.82,West,264,0.0,0.0,98,0.00,,,0.00,WeatherCatV1.11B39,2013-08-01 11:53:00,
2013-08-01 07:58:00,62.4,61.8,29.81,West,264,0.0,0.0,98,0.00,,,0.00,WeatherCatV1.11B39,2013-08-01 11:58:00,
2013-08-01 08:03:00,62.7,62.4,29.81,West,264,0.0,0.0,99,0.00,,,0.00,WeatherCatV1.11B39,2013-08-01 12:03:00,
2013-08-01 08:08:00,63.0,62.7,29.81,West,264,0.0,0.0,99,0.00,,,0.00,WeatherCatV1.11B39,2013-08-01 12:08:00,
2013-08-01 08:13:00,63.4,63.1,29.81,West,264,0.0,0.0,99,0.00,,,0.00,WeatherCatV1.11B39,2013-08-01 12:13:00,
2013-08-01 08:18:00,63.7,63.4,29.81,West,264,0.0,0.0,99,0.00,,,0.00,WeatherCatV1.11B39,2013-08-01 12:18:00,
2013-08-01 08:23:00,64.2,63.9,29.81,West,264,0.0,0.0,99,0.00,,,0.00,WeatherCatV1.11B39,2013-08-01 12:23:00,
2013-08-01 08:28:00,64.7,64.1,29.81,West,264,0.0,0.0,98,0.00,,,0.00,WeatherCatV1.11B39,2013-08-01 12:28:00,
2013-08-01 08:33:00,65.1,64.5,29.81,West,264,0.0,0.0,98,0.00,,,0.00,WeatherCatV1.11B39,2013-08-01 12:33:00,
2013-08-01 08:38:00,65.6,65.3,29.81,West,264,0.0,0.0,99,0.00,,,0.00,WeatherCatV1.11B39,2013-08-01 12:38:00,
2013-08-01 08:43:00,66.1,65.5,29.81,West,264,0.0,0.0,98,0.00,,,0.00,WeatherCatV1.11B39,2013-08-01 12:43:00,
2013-08-01 08:48:00,66.4,65.5,29.81,West,264,0.0,0.0,97,0.00,,,0.00,WeatherCatV1.11B39,2013-08-01 12:48:00,
2013-08-01 08:53:00,67.0,66.1,29.80,West,264,0.0,0.0,97,0.00,,,0.00,WeatherCatV1.11B39,2013-08-01 12:53:00,
2013-08-01 08:58:00,67.8,66.9,29.80,West,264,0.0,0.0,97,0.00,,,0.00,WeatherCatV1.11B39,2013-08-01 12:58:00,
2013-08-01 09:03:00,68.8,67.9,29.80,West,264,0.0,0.0,97,0.00,,,0.00,WeatherCatV1.11B39,2013-08-01 13:03:00,
2013-08-01 09:08:00,69.4,67.6,29.80,West,264,0.0,0.0,94,0.00,,,0.00,WeatherCatV1.11B39,2013-08-01 13:08:00,
2013-08-01 09:13:00,70.4,68.3,29.80,West,264,0.0,0.0,93,0.00,,,0.00,WeatherCatV1.11B39,2013-08-01 13:13:00,
2013-08-01 09:18:00,71.1,68.3,29.79,West,264,0.0,0.0,91,0.00,,,0.00,WeatherCatV1.11B39,2013-08-01 13:18:00,
2013-08-01 09:23:00,71.7,67.9,29.79,West,264,0.0,0.0,88,0.00,,,0.00,WeatherCatV1.11B39,2013-08-01 13:23:00,
2013-08-01 09:28:00,72.5,67.7,29.79,West,264,0.0,0.0,85,0.00,,,0.00,WeatherCatV1.11B39,2013-08-01 13:28:00,
2013-08-01 09:33:00,72.9,67.1,29.79,West,264,0.0,0.0,82,0.00,,,0.00,WeatherCatV1.11B39,2013-08-01 13:33:00,
2013-08-01 09:38:00,73.5,67.7,29.79,West,264,0.0,0.0,82,0.00,,,0.00,WeatherCatV1.11B39,2013-08-01 13:38:00,
2013-08-01 09:43:00,74.0,67.1,29.79,South,171,0.0,0.0,79,0.00,,,0.00,WeatherCatV1.11B39,2013-08-01 13:43:00,
2013-08-01 09:48:00,74.5,66.4,29.79,South,170,0.0,0.0,76,0.00,,,0.00,WeatherCatV1.11B39,2013-08-01 13:48:00,
2013-08-01 09:52:00,74.8,65.5,29.79,SE,127,0.0,0.0,73,0.00,,,0.00,WeatherCatV1.11B39,2013-08-01 13:52:00,
2013-08-01 09:57:00,75.3,66.0,29.78,SE,132,0.0,0.0,73,0.00,,,0.00,WeatherCatV1.11B39,2013-08-01 13:57:00,
2013-08-01 10:02:00,75.5,65.8,29.78,WSW,248,0.0,0.0,72,0.00,,,0.00,WeatherCatV1.11B39,2013-08-01 14:02:00,
2013-08-01 10:07:00,75.5,65.8,29.78,South,169,0.0,0.0,72,0.00,,,0.00,WeatherCatV1.11B39,2013-08-01 14:07:00,
2013-08-01 10:12:00,75.9,66.2,29.78,ENE,72,0.0,0.0,72,0.00,,,0.00,WeatherCatV1.11B39,2013-08-01 14:12:00,
2013-08-01 10:17:00,76.3,67.0,29.78,SE,138,0.0,0.0,73,0.00,,,0.00,WeatherCatV1.11B39,2013-08-01 14:17:00,
2013-08-01 10:22:00,76.8,66.7,29.78,SSE,155,0.0,0.0,71,0.00,,,0.00,WeatherCatV1.11B39,2013-08-01 14:22:00,
2013-08-01 10:28:00,77.3,65.5,29.78,South,177,0.0,0.0,67,0.00,,,0.00,WeatherCatV1.11B39,2013-08-01 14:28:00,
2013-08-01 10:33:00,77.3,65.5,29.77,South,175,0.0,0.0,67,0.00,,,0.00,WeatherCatV1.11B39,2013-08-01 14:33:00,
2013-08-01 10:38:00,77.1,65.7,29.77,South,179,0.0,0.0,68,0.00,,,0.00,WeatherCatV1.11B39,2013-08-01 14:38:00,
2013-08-01 10:43:00,76.8,64.1,29.77,WSW,254,0.0,2.0,65,0.00,,,0.00,WeatherCatV1.11B39,2013-08-01 14:43:00,
2013-08-01 10:48:00,76.4,64.6,29.77,SW,232,0.0,0.0,67,0.00,,,0.00,WeatherCatV1.11B39,2013-08-01 14:48:00,
2013-08-01 10:53:00,76.9,65.9,29.77,WSW,245,0.0,2.0,69,0.00,,,0.00,WeatherCatV1.11B39,2013-08-01 14:53:00,
2013-08-01 10:58:00,77.5,64.3,29.77,East,83,0.0,0.0,64,0.00,,,0.00,WeatherCatV1.11B39,2013-08-01 14:58:00,
2013-08-01 11:03:00,77.7,64.5,29.77,WSW,249,0.0,1.0,64,0.00,,,0.00,WeatherCatV1.11B39,2013-08-01 15:03:00,
2013-08-01 11:08:00,77.3,64.2,29.77,SSE,164,0.0,0.0,64,0.00,,,0.00,WeatherCatV1.11B39,2013-08-01 15:08:00,
2013-08-01 11:13:00,77.5,63.4,29.76,SSE,154,0.0,1.0,62,0.00,,,0.00,WeatherCatV1.11B39,2013-08-01 15:13:00,
2013-08-01 11:18:00,77.8,65.1,29.77,WSW,255,0.0,0.0,65,0.00,,,0.00,WeatherCatV1.11B39,2013-08-01 15:18:00,
2013-08-01 11:23:00,77.6,64.0,29.76,SSE,158,0.0,0.0,63,0.00,,,0.00,WeatherCatV1.11B39,2013-08-01 15:23:00,
2013-08-01 11:28:00,77.1,63.1,29.76,WSW,248,0.0,0.0,62,0.00,,,0.00,WeatherCatV1.11B39,2013-08-01 15:28:00,
2013-08-01 11:33:00,76.6,63.0,29.76,South,171,0.0,0.0,63,0.00,,,0.00,WeatherCatV1.11B39,2013-08-01 15:33:00,
2013-08-01 11:38:00,76.2,63.6,29.76,South,187,0.0,0.0,65,0.00,,,0.00,WeatherCatV1.11B39,2013-08-01 15:38:00,
2013-08-01 11:43:00,75.9,63.3,29.76,SSW,198,0.0,0.0,65,0.00,,,0.00,WeatherCatV1.11B39,2013-08-01 15:43:00,
2013-08-01 11:48:00,75.9,63.3,29.76,South,177,0.0,1.0,65,0.00,,,0.00,WeatherCatV1.11B39,2013-08-01 15:48:00,
2013-08-01 11:53:00,76.0,64.2,29.75,SSW,210,0.0,0.0,67,0.00,,,0.00,WeatherCatV1.11B39,2013-08-01 15:53:00,
2013-08-01 11:58:00,75.9,63.7,29.75,WSW,254,0.0,0.0,66,0.00,,,0.00,WeatherCatV1.11B39,2013-08-01 15:58:00,
2013-08-01 12:03:00,75.7,63.1,29.75,South,177,0.0,0.0,65,0.00,,,0.00,WeatherCatV1.11B39,2013-08-01 16:03:00,
2013-08-01 12:08:00,75.9,63.7,29.75,South,190,0.0,0.0,66,0.00,,,0.00,WeatherCatV1.11B39,2013-08-01 16:08:00,
2013-08-01 12:13:00,76.1,64.3,29.76,South,180,0.0,0.0,67,0.00,,,0.00,WeatherCatV1.11B39,2013-08-01 16:13:00,
2013-08-01 12:18:00,76.6,64.8,29.75,SSE,166,0.0,0.0,67,0.00,,,0.00,WeatherCatV1.11B39,2013-08-01 16:18:00,
2013-08-01 12:23:00,77.3,64.6,29.75,SE,142,0.0,0.0,65,0.00,,,0.00,WeatherCatV1.11B39,2013-08-01 16:23:00,
2013-08-01 12:28:00,77.7,64.1,29.75,SSE,168,4.0,7.0,63,0.00,,,0.00,WeatherCatV1.11B39,2013-08-01 16:28:00,
2013-08-01 12:33:00,77.7,64.1,29.75,WSW,245,0.0,1.0,63,0.00,,,0.00,WeatherCatV1.11B39,2013-08-01 16:33:00,
2013-08-01 12:38:00,77.1,63.1,29.75,SSW,201,0.0,0.0,62,0.00,,,0.00,WeatherCatV1.11B39,2013-08-01 16:38:00,
2013-08-01 12:43:00,76.8,62.3,29.75,West,276,0.0,0.0,61,0.00,,,0.00,WeatherCatV1.11B39,2013-08-01 16:43:00,
2013-08-01 12:48:00,76.9,63.3,29.75,WSW,237,0.0,1.0,63,0.00,,,0.00,WeatherCatV1.11B39,2013-08-01 16:48:00,
2013-08-01 12:53:00,76.9,63.3,29.75,SW,233,0.0,0.0,63,0.00,,,0.00,WeatherCatV1.11B39,2013-08-01 16:53:00,
2013-08-01 12:58:00,76.8,63.2,29.75,West,259,2.0,5.0,63,0.00,,,0.00,WeatherCatV1.11B39,2013-08-01 16:58:00,
2013-08-01 13:03:00,76.2,61.7,29.74,SE,144,0.0,7.0,61,0.00,,,0.00,WeatherCatV1.11B39,2013-08-01 17:03:00,
2013-08-01 13:08:00,76.1,62.6,29.75,West,277,3.0,6.0,63,0.00,,,0.00,WeatherCatV1.11B39,2013-08-01 17:08:00,
2013-08-01 13:13:00,75.5,62.5,29.74,WSW,238,0.0,0.0,64,0.00,,,0.00,WeatherCatV1.11B39,2013-08-01 17:13:00,
2013-08-01 13:18:00,75.1,62.5,29.74,SW,226,0.0,0.0,65,0.00,,,0.00,WeatherCatV1.11B39,2013-08-01 17:18:00,
2013-08-01 13:23:00,75.2,62.6,29.74,South,178,0.0,0.0,65,0.00,,,0.00,WeatherCatV1.11B39,2013-08-01 17:23:00,
2013-08-01 13:28:00,75.2,63.0,29.74,SW,225,0.0,5.0,66,0.00,,,0.00,WeatherCatV1.11B39,2013-08-01 17:28:00,
2013-08-01 13:33:00,75.5,63.3,29.74,SSE,163,0.0,0.0,66,0.00,,,0.00,WeatherCatV1.11B39,2013-08-01 17:33:00,
2013-08-01 13:38:00,76.1,63.5,29.73,SE,132,0.0,5.0,65,0.00,,,0.00,WeatherCatV1.11B39,2013-08-01 17:38:00,
2013-08-01 13:43:00,76.4,63.3,29.73,NNW,346,0.0,10.0,64,0.00,,,0.00,WeatherCatV1.11B39,2013-08-01 17:43:00,
2013-08-01 13:48:00,76.6,63.0,29.73,WSW,243,2.0,8.0,63,0.00,,,0.00,WeatherCatV1.11B39,2013-08-01 17:48:00,
2013-08-01 13:53:00,76.2,63.6,29.73,West,267,0.0,0.0,65,0.00,,,0.00,WeatherCatV1.11B39,2013-08-01 17:53:00,
2013-08-01 13:58:00,76.2,64.4,29.73,SSW,193,0.0,1.0,67,0.00,,,0.00,WeatherCatV1.11B39,2013-08-01 17:58:00,
2013-08-01 14:03:00,76.2,63.6,29.73,WSW,258,5.0,8.0,65,0.00,,,0.00,WeatherCatV1.11B39,2013-08-01 18:03:00,
2013-08-01 14:08:00,75.7,63.5,29.73,ESE,109,0.0,0.0,66,0.00,,,0.00,WeatherCatV1.11B39,2013-08-01 18:08:00,
2013-08-01 14:13:00,75.5,63.3,29.73,SSW,212,0.0,0.0,66,0.00,,,0.00,WeatherCatV1.11B39,2013-08-01 18:13:00,
2013-08-01 14:18:00,75.2,63.5,29.73,SW,235,0.0,0.0,67,0.00,,,0.00,WeatherCatV1.11B39,2013-08-01 18:18:00,
2013-08-01 14:23:00,74.8,63.1,29.73,South,183,0.0,0.0,67,0.00,,,0.00,WeatherCatV1.11B39,2013-08-01 18:23:00,
2013-08-01 14:28:00,74.5,64.1,29.72,SSE,167,0.0,0.0,70,0.00,,,0.00,WeatherCatV1.11B39,2013-08-01 18:28:00,
2013-08-01 14:33:00,74.1,63.7,29.72,SW,220,0.0,0.0,70,0.00,,,0.00,WeatherCatV1.11B39,2013-08-01 18:33:00,
2013-08-01 14:38:00,74.1,63.7,29.73,South,187,0.0,0.0,70,0.00,,,0.00,WeatherCatV1.11B39,2013-08-01 18:38:00,
2013-08-01 14:43:00,74.3,64.3,29.73,SSW,199,0.0,0.0,71,0.00,,,0.00,WeatherCatV1.11B39,2013-08-01 18:43:00,
2013-08-01 14:48:00,74.4,64.4,29.72,WSW,252,0.0,1.0,71,0.00,,,0.00,WeatherCatV1.11B39,2013-08-01 18:48:00,
2013-08-01 14:53:00,74.6,63.7,29.72,WSW,255,4.0,9.0,69,0.00,,,0.00,WeatherCatV1.11B39,2013-08-01 18:53:00,
2013-08-01 14:58:00,74.8,63.1,29.72,WSW,239,0.0,0.0,67,0.00,,,0.00,WeatherCatV1.11B39,2013-08-01 18:58:00,
2013-08-01 15:03:00,74.6,63.7,29.72,SSW,212,0.0,0.0,69,0.00,,,0.00,WeatherCatV1.11B39,2013-08-01 19:03:00,
2013-08-01 15:08:00,74.6,63.3,29.72,WSW,241,0.0,0.0,68,0.00,,,0.00,WeatherCatV1.11B39,2013-08-01 19:08:00,
2013-08-01 15:13:00,74.6,64.2,29.72,WSW,242,0.0,0.0,70,0.00,,,0.00,WeatherCatV1.11B39,2013-08-01 19:13:00,
2013-08-01 15:18:00,74.6,63.7,29.72,SSW,209,0.0,0.0,69,0.00,,,0.00,WeatherCatV1.11B39,2013-08-01 19:18:00,
2013-08-01 15:23:00,74.5,64.1,29.72,WSW,249,0.0,0.0,70,0.00,,,0.00,WeatherCatV1.11B39,2013-08-01 19:23:00,
2013-08-01 15:28:00,74.5,64.1,29.72,WSW,244,0.0,0.0,70,0.00,,,0.00,WeatherCatV1.11B39,2013-08-01 19:28:00,
2013-08-01 15:33:00,74.5,64.5,29.73,WSW,244,0.0,0.0,71,0.00,,,0.00,WeatherCatV1.11B39,2013-08-01 19:33:00,
2013-08-01 15:38:00,74.3,64.3,29.72,WSW,248,0.0,0.0,71,0.00,,,0.00,WeatherCatV1.11B39,2013-08-01 19:38:00,
2013-08-01 15:43:00,74.1,64.1,29.73,WSW,245,0.0,0.0,71,0.00,,,0.00,WeatherCatV1.11B39,2013-08-01 19:43:00,
2013-08-01 15:48:00,74.0,64.0,29.73,WSW,255,4.0,8.0,71,0.00,,,0.00,WeatherCatV1.11B39,2013-08-01 19:48:00,
2013-08-01 15:53:00,73.6,64.0,29.73,WSW,240,1.0,5.0,72,0.00,,,0.00,WeatherCatV1.11B39,2013-08-01 19:53:00,
2013-08-01 15:58:00,73.3,64.5,29.73,WSW,244,0.0,0.0,74,0.00,,,0.00,WeatherCatV1.11B39,2013-08-01 19:58:00,
2013-08-01 16:03:00,72.9,64.9,29.72,WSW,251,0.0,5.0,76,0.00,,,0.00,WeatherCatV1.11B39,2013-08-01 20:03:00,
2013-08-01 16:08:00,72.8,64.4,29.73,WSW,242,7.0,7.0,75,0.00,,,0.00,WeatherCatV1.11B39,2013-08-01 20:08:00,
2013-08-01 16:13:00,72.6,64.6,29.73,West,259,6.0,12.0,76,0.00,,,0.00,WeatherCatV1.11B39,2013-08-01 20:13:00,
2013-08-01 16:18:00,72.3,64.7,29.74,West,265,5.0,7.0,77,0.00,,,0.00,WeatherCatV1.11B39,2013-08-01 20:18:00,
2013-08-01 16:23:00,71.7,64.1,29.74,West,267,4.0,6.0,77,0.00,,,0.00,WeatherCatV1.11B39,2013-08-01 20:23:00,
2013-08-01 16:28:00,71.2,64.0,29.74,SW,227,0.0,10.0,78,0.00,,,0.00,WeatherCatV1.11B39,2013-08-01 20:28:00,
2013-08-01 16:33:00,70.5,63.7,29.73,West,259,5.0,6.0,79,0.00,,,0.00,WeatherCatV1.11B39,2013-08-01 20:33:00,
2013-08-01 16:38:00,70.1,63.6,29.73,WSW,249,2.0,5.0,80,0.00,,,0.00,WeatherCatV1.11B39,2013-08-01 20:38:00,
2013-08-01 16:41:00,69.9,63.4,29.73,SW,230,0.0,4.0,80,0.00,,,0.00,WeatherCatV1.11B39,2013-08-01 20:41:00,
2013-08-01 16:46:00,69.7,63.9,29.73,West,262,5.0,5.0,82,0.00,,,0.00,WeatherCatV1.11B39,2013-08-01 20:46:00,
2013-08-01 16:52:00,69.7,63.9,29.73,West,259,5.0,10.0,82,0.00,,,0.00,WeatherCatV1.11B39,2013-08-01 20:52:00,
2013-08-01 16:57:00,69.6,63.9,29.73,WSW,256,0.0,8.0,82,0.00,,,0.00,WeatherCatV1.11B39,2013-08-01 20:57:00,
2013-08-01 17:02:00,69.6,63.5,29.73,SW,233,0.0,11.0,81,0.00,,,0.00,WeatherCatV1.11B39,2013-08-01 21:02:00,
2013-08-01 17:07:00,69.6,63.5,29.73,WSW,248,0.0,6.0,81,0.00,,,0.00,WeatherCatV1.11B39,2013-08-01 21:07:00,
2013-08-01 17:12:00,69.2,62.8,29.73,WSW,246,7.0,8.0,80,0.00,,,0.00,WeatherCatV1.11B39,2013-08-01 21:12:00,
2013-08-01 17:17:00,69.1,62.3,29.73,WSW,250,0.0,5.0,79,0.00,,,0.00,WeatherCatV1.11B39,2013-08-01 21:17:00,
2013-08-01 17:22:00,68.9,61.7,29.73,WSW,254,0.0,4.0,78,0.00,,,0.00,WeatherCatV1.11B39,2013-08-01 21:22:00,
2013-08-01 17:27:00,68.8,61.3,29.72,SW,216,0.0,7.0,77,0.00,,,0.00,WeatherCatV1.11B39,2013-08-01 21:27:00,
2013-08-01 17:32:00,68.6,61.1,29.72,WSW,258,0.0,6.0,77,0.00,,,0.00,WeatherCatV1.11B39,2013-08-01 21:32:00,
2013-08-01 17:37:00,68.4,61.6,29.73,West,260,5.0,7.0,79,0.00,,,0.00,WeatherCatV1.11B39,2013-08-01 21:37:00,
2013-08-01 17:42:00,68.4,61.6,29.73,WSW,258,7.0,7.0,79,0.00,,,0.00,WeatherCatV1.11B39,2013-08-01 21:42:00,
2013-08-01 17:47:00,68.4,62.0,29.73,WSW,242,3.0,4.0,80,0.00,,,0.00,WeatherCatV1.11B39,2013-08-01 21:47:00,
2013-08-01 17:52:00,68.3,61.9,29.73,SW,235,0.0,5.0,80,0.00,,,0.00,WeatherCatV1.11B39,2013-08-01 21:52:00,
2013-08-01 17:57:00,68.3,62.2,29.72,WSW,240,0.0,0.0,81,0.00,,,0.00,WeatherCatV1.11B39,2013-08-01 21:57:00,
2013-08-01 18:02:00,68.3,62.6,29.73,SW,232,0.0,3.0,82,0.00,,,0.00,WeatherCatV1.11B39,2013-08-01 22:02:00,
2013-08-01 18:07:00,68.1,62.0,29.73,WSW,247,0.0,1.0,81,0.00,,,0.00,WeatherCatV1.11B39,2013-08-01 22:07:00,
2013-08-01 18:12:00,68.1,62.4,29.72,SW,218,0.0,0.0,82,0.00,,,0.00,WeatherCatV1.11B39,2013-08-01 22:12:00,
2013-08-01 18:17:00,68.1,62.4,29.72,WSW,250,0.0,0.0,82,0.00,,,0.00,WeatherCatV1.11B39,2013-08-01 22:17:00,
2013-08-01 18:22:00,68.1,62.4,29.72,WSW,249,0.0,1.0,82,0.00,,,0.00,WeatherCatV1.11B39,2013-08-01 22:22:00,
2013-08-01 18:27:00,68.1,62.4,29.72,WSW,237,3.0,3.0,82,0.00,,,0.00,WeatherCatV1.11B39,2013-08-01 22:27:00,
2013-08-01 18:32:00,68.2,62.5,29.72,SSW,210,0.0,1.0,82,0.00,,,0.00,WeatherCatV1.11B39,2013-08-01 22:32:00,
2013-08-01 18:37:00,68.2,62.5,29.72,WSW,249,0.0,0.0,82,0.00,,,0.00,WeatherCatV1.11B39,2013-08-01 22:37:00,
2013-08-01 18:42:00,68.3,62.9,29.72,WSW,253,4.0,7.0,83,0.00,,,0.00,WeatherCatV1.11B39,2013-08-01 22:42:00,
2013-08-01 18:47:00,68.3,63.3,29.72,WSW,246,0.0,4.0,84,0.00,,,0.00,WeatherCatV1.11B39,2013-08-01 22:47:00,
2013-08-01 18:52:00,68.3,62.9,29.72,SW,229,4.0,7.0,83,0.00,,,0.00,WeatherCatV1.11B39,2013-08-01 22:52:00,
2013-08-01 18:57:00,68.4,63.0,29.72,WSW,251,0.0,0.0,83,0.00,,,0.00,WeatherCatV1.11B39,2013-08-01 22:57:00,
2013-08-01 19:02:00,68.4,63.0,29.72,WSW,249,0.0,0.0,83,0.00,,,0.00,WeatherCatV1.11B39,2013-08-01 23:02:00,
2013-08-01 19:07:00,68.3,63.3,29.72,WSW,252,0.0,0.0,84,0.00,,,0.00,WeatherCatV1.11B39,2013-08-01 23:07:00,
2013-08-01 19:12:00,68.3,63.3,29.73,WSW,251,0.0,0.0,84,0.00,,,0.00,WeatherCatV1.11B39,2013-08-01 23:12:00,
2013-08-01 19:17:00,68.2,62.8,29.72,WSW,249,0.0,3.0,83,0.00,,,0.00,WeatherCatV1.11B39,2013-08-01 23:17:00,
2013-08-01 19:22:00,68.3,63.3,29.72,WSW,251,5.0,7.0,84,0.00,,,0.00,WeatherCatV1.11B39,2013-08-01 23:22:00,
2013-08-01 19:27:00,68.3,62.9,29.73,WSW,257,2.0,9.0,83,0.00,,,0.00,WeatherCatV1.11B39,2013-08-01 23:27:00,
2013-08-01 19:32:00,68.3,62.6,29.72,West,260,0.0,7.0,82,0.00,,,0.00,WeatherCatV1.11B39,2013-08-01 23:32:00,
2013-08-01 19:37:00,68.4,62.7,29.73,West,260,4.0,7.0,82,0.00,,,0.00,WeatherCatV1.11B39,2013-08-01 23:37:00,
2013-08-01 19:42:00,68.3,62.6,29.73,WSW,242,0.0,0.0,82,0.00,,,0.00,WeatherCatV1.11B39,2013-08-01 23:42:00,
2013-08-01 19:47:00,68.1,62.7,29.73,WSW,253,0.0,6.0,83,0.00,,,0.00,WeatherCatV1.11B39,2013-08-01 23:47:00,
2013-08-01 19:52:00,68.1,62.7,29.73,WSW,251,0.0,0.0,83,0.00,,,0.00,WeatherCatV1.11B39,2013-08-01 23:52:00,
2013-08-01 19:57:00,68.1,62.4,29.72,WSW,245,0.0,0.0,82,0.00,,,0.00,WeatherCatV1.11B39,2013-08-01 23:57:00,
2013-08-01 20:02:00,68.1,62.7,29.73,WSW,241,0.0,0.0,83,0.00,,,0.00,WeatherCatV1.11B39,2013-08-02 00:02:00,
2013-08-01 20:07:00,68.1,63.1,29.73,WSW,241,0.0,0.0,84,0.00,,,0.00,WeatherCatV1.11B39,2013-08-02 00:07:00,
2013-08-01 20:12:00,67.9,62.2,29.73,WSW,251,0.0,0.0,82,0.00,,,0.00,WeatherCatV1.11B39,2013-08-02 00:12:00,
2013-08-01 20:17:00,67.9,62.2,29.73,WSW,254,0.0,6.0,82,0.00,,,0.00,WeatherCatV1.11B39,2013-08-02 00:17:00,
2013-08-01 20:22:00,67.8,62.1,29.73,WSW,255,0.0,6.0,82,0.00,,,0.00,WeatherCatV1.11B39,2013-08-02 00:22:00,
2013-08-01 20:27:00,67.8,62.1,29.73,WSW,255,0.0,0.0,82,0.00,,,0.00,WeatherCatV1.11B39,2013-08-02 00:27:00,
2013-08-01 20:32:00,67.6,61.9,29.72,WSW,255,0.0,0.0,82,0.00,,,0.00,WeatherCatV1.11B39,2013-08-02 00:32:00,
2013-08-01 20:37:00,67.4,61.7,29.72,WSW,252,0.0,0.0,82,0.00,,,0.00,WeatherCatV1.11B39,2013-08-02 00:37:00,
2013-08-01 20:42:00,67.2,61.5,29.72,WSW,252,0.0,0.0,82,0.00,,,0.00,WeatherCatV1.11B39,2013-08-02 00:42:00,
2013-08-01 20:47:00,67.2,61.9,29.72,WSW,252,0.0,0.0,83,0.00,,,0.00,WeatherCatV1.11B39,2013-08-02 00:47:00,
2013-08-01 20:52:00,67.1,62.1,29.73,WSW,252,0.0,0.0,84,0.00,,,0.00,WeatherCatV1.11B39,2013-08-02 00:52:00,
2013-08-01 20:57:00,67.0,62.0,29.73,WSW,252,0.0,0.0,84,0.00,,,0.00,WeatherCatV1.11B39,2013-08-02 00:57:00,
2013-08-01 21:02:00,66.9,61.9,29.72,WSW,252,0.0,0.0,84,0.00,,,0.00,WeatherCatV1.11B39,2013-08-02 01:02:00,
2013-08-01 21:07:00,66.7,62.0,29.72,WSW,252,0.0,0.0,85,0.00,,,0.00,WeatherCatV1.11B39,2013-08-02 01:07:00,
2013-08-01 21:12:00,66.7,62.0,29.72,WSW,252,0.0,0.0,85,0.00,,,0.00,WeatherCatV1.11B39,2013-08-02 01:12:00,
2013-08-01 21:17:00,66.6,62.3,29.72,WSW,252,0.0,0.0,86,0.00,,,0.00,WeatherCatV1.11B39,2013-08-02 01:17:00,
2013-08-01 21:22:00,66.6,62.3,29.72,WSW,252,0.0,0.0,86,0.00,,,0.00,WeatherCatV1.11B39,2013-08-02 01:22:00,
2013-08-01 21:27:00,66.6,62.3,29.72,WSW,252,0.0,0.0,86,0.00,,,0.00,WeatherCatV1.11B39,2013-08-02 01:27:00,
2013-08-01 21:32:00,66.4,62.1,29.72,WSW,251,0.0,0.0,86,0.00,,,0.00,WeatherCatV1.11B39,2013-08-02 01:32:00,
2013-08-01 21:37:00,66.2,61.9,29.73,WSW,251,0.0,0.0,86,0.00,,,0.00,WeatherCatV1.11B39,2013-08-02 01:37:00,
2013-08-01 21:42:00,66.1,61.8,29.72,WSW,252,0.0,4.0,86,0.00,,,0.01,WeatherCatV1.11B39,2013-08-02 01:42:00,
2013-08-01 21:47:00,65.9,61.9,29.72,WSW,248,0.0,0.0,87,0.00,,,0.01,WeatherCatV1.11B39,2013-08-02 01:47:00,
2013-08-01 21:52:00,65.6,61.9,29.72,WSW,249,0.0,0.0,88,0.00,,,0.01,WeatherCatV1.11B39,2013-08-02 01:52:00,
2013-08-01 21:57:00,65.6,61.9,29.72,WSW,247,0.0,0.0,88,0.00,,,0.01,WeatherCatV1.11B39,2013-08-02 01:57:00,
2013-08-01 22:02:00,65.4,61.7,29.71,WSW,247,0.0,0.0,88,0.00,,,0.01,WeatherCatV1.11B39,2013-08-02 02:02:00,
2013-08-01 22:07:00,65.5,61.8,29.71,WSW,247,0.0,0.0,88,0.00,,,0.01,WeatherCatV1.11B39,2013-08-02 02:07:00,
2013-08-01 22:12:00,65.5,62.2,29.71,WSW,247,0.0,0.0,89,0.00,,,0.01,WeatherCatV1.11B39,2013-08-02 02:12:00,
2013-08-01 22:17:00,65.5,62.5,29.71,WSW,247,0.0,0.0,90,0.00,,,0.01,WeatherCatV1.11B39,2013-08-02 02:17:00,
2013-08-01 22:22:00,65.5,62.5,29.71,WSW,247,0.0,0.0,90,0.00,,,0.01,WeatherCatV1.11B39,2013-08-02 02:22:00,
2013-08-01 22:27:00,65.6,62.6,29.71,WSW,247,0.0,0.0,90,0.00,,,0.01,WeatherCatV1.11B39,2013-08-02 02:27:00,
2013-08-01 22:32:00,65.6,62.9,29.71,WSW,247,0.0,0.0,91,0.00,,,0.01,WeatherCatV1.11B39,2013-08-02 02:32:00,
2013-08-01 22:37:00,65.5,62.8,29.70,WSW,247,0.0,0.0,91,0.00,,,0.01,WeatherCatV1.11B39,2013-08-02 02:37:00,
2013-08-01 22:42:00,65.3,62.9,29.70,WSW,247,0.0,0.0,92,0.00,,,0.01,WeatherCatV1.11B39,2013-08-02 02:42:00,
2013-08-01 22:47:00,65.3,62.6,29.70,WSW,247,0.0,0.0,91,0.00,,,0.01,WeatherCatV1.11B39,2013-08-02 02:47:00,
2013-08-01 22:52:00,65.1,62.4,29.70,WSW,247,0.0,0.0,91,0.00,,,0.01,WeatherCatV1.11B39,2013-08-02 02:52:00,
2013-08-01 22:58:00,65.1,62.7,29.70,WSW,247,0.0,0.0,92,0.00,,,0.01,WeatherCatV1.11B39,2013-08-02 02:58:00,
2013-08-01 23:03:00,65.1,62.7,29.70,WSW,247,0.0,0.0,92,0.00,,,0.01,WeatherCatV1.11B39,2013-08-02 03:03:00,
2013-08-01 23:08:00,65.0,62.6,29.70,WSW,247,0.0,0.0,92,0.00,,,0.01,WeatherCatV1.11B39,2013-08-02 03:08:00,
2013-08-01 23:13:00,65.0,62.6,29.70,WSW,247,0.0,0.0,92,0.00,,,0.01,WeatherCatV1.11B39,2013-08-02 03:13:00,
2013-08-01 23:18:00,64.9,62.8,29.69,WSW,247,0.0,0.0,93,0.00,,,0.02,WeatherCatV1.11B39,2013-08-02 03:18:00,
2013-08-01 23:23:00,65.0,62.9,29.70,WSW,247,0.0,0.0,93,0.00,,,0.02,WeatherCatV1.11B39,2013-08-02 03:23:00,
2013-08-01 23:28:00,65.0,62.9,29.69,WSW,247,0.0,0.0,93,0.00,,,0.03,WeatherCatV1.11B39,2013-08-02 03:28:00,
2013-08-01 23:33:00,65.0,62.9,29.69,WSW,247,0.0,0.0,93,0.00,,,0.03,WeatherCatV1.11B39,2013-08-02 03:33:00,
2013-08-01 23:38:00,65.0,62.9,29.69,WSW,247,0.0,0.0,93,0.00,,,0.03,WeatherCatV1.11B39,2013-08-02 03:38:00,
2013-08-01 23:43:00,64.9,63.1,29.69,WSW,247,0.0,0.0,94,0.00,,,0.03,WeatherCatV1.11B39,2013-08-02 03:43:00,
2013-08-01 23:48:00,65.0,63.2,29.68,WSW,247,0.0,0.0,94,0.00,,,0.03,WeatherCatV1.11B39,2013-08-02 03:48:00,
2013-08-01 23:53:00,65.0,63.2,29.69,WSW,247,0.0,0.0,94,0.00,,,0.03,WeatherCatV1.11B39,2013-08-02 03:53:00,
2013-08-01 23:58:00,65.0,63.2,29.69,WSW,247,0.0,0.0,94,0.00,,,0.03,WeatherCatV1.11B39,2013-08-02 03:58:00,